createdAt,value
2017-11-22T01:13:32.749Z,16.10
2017-11-22T01:16:00.972Z,19.00
2017-11-22T01:18:29.177Z,18.60
2017-11-22T01:20:57.416Z,18.40
2017-11-22T01:23:25.609Z,16.90
2017-11-22T01:25:53.825Z,17.30
2017-11-22T01:28:22.136Z,18.90
2017-11-22T01:30:51.087Z,18.30
2017-11-22T01:33:19.314Z,18.07
2017-11-22T01:35:47.529Z,16.73
2017-11-22T01:38:15.719Z,17.30
2017-11-22T01:40:43.927Z,17.00
2017-11-22T01:43:12.912Z,17.10
2017-11-22T01:45:41.912Z,16.33
2017-11-22T01:48:10.193Z,15.60
2017-11-22T01:50:39.231Z,16.83
2017-11-22T01:53:07.452Z,17.47
2017-11-22T01:55:36.490Z,17.07
2017-11-22T01:58:04.725Z,16.77
2017-11-22T02:00:51.669Z,17.33
2017-11-22T02:03:19.970Z,16.80
2017-11-22T02:05:48.190Z,16.30
2017-11-22T02:08:17.176Z,15.60
2017-11-22T02:10:45.402Z,17.17
2017-11-22T02:13:13.667Z,16.97
2017-11-22T02:15:41.909Z,18.33
2017-11-22T02:18:10.947Z,16.80
2017-11-22T02:20:39.127Z,17.07
2017-11-22T02:23:07.347Z,16.00
2017-11-22T02:25:35.558Z,15.87
2017-11-22T02:28:03.783Z,15.70
2017-11-22T02:30:31.985Z,16.47
2017-11-22T02:33:01.020Z,18.17
2017-11-22T02:35:29.254Z,16.20
2017-11-22T02:37:58.304Z,16.70
2017-11-22T02:40:26.525Z,15.80
2017-11-22T02:42:55.482Z,14.83
2017-11-22T02:45:23.744Z,14.97
2017-11-22T02:47:51.982Z,14.93
2017-11-22T02:50:21.005Z,15.47
2017-11-22T02:52:49.233Z,14.33
2017-11-22T02:55:17.500Z,14.20
2017-11-22T02:57:45.800Z,14.23
2017-11-22T03:00:14.782Z,12.97
2017-11-22T03:02:42.975Z,13.90
2017-11-22T03:05:11.989Z,13.57
2017-11-22T03:07:40.240Z,13.60
2017-11-22T03:10:09.240Z,12.73
2017-11-22T03:12:38.214Z,14.83
2017-11-22T03:15:06.467Z,13.87
2017-11-22T03:17:34.720Z,15.33
2017-11-22T03:20:02.917Z,13.07
2017-11-22T03:22:31.191Z,13.23
2017-11-22T03:24:59.417Z,13.73
2017-11-22T03:27:27.637Z,13.50
2017-11-22T03:29:55.876Z,11.47
2017-11-22T03:32:24.084Z,13.27
2017-11-22T03:34:52.355Z,14.20
2017-11-22T03:37:20.624Z,13.20
2017-11-22T03:39:48.876Z,13.47
2017-11-22T03:42:17.113Z,12.70
2017-11-22T03:44:45.328Z,13.57
2017-11-22T03:47:13.674Z,14.00
2017-11-22T03:49:47.595Z,14.37
2017-11-22T03:52:22.094Z,13.13
2017-11-22T03:54:50.293Z,11.87
2017-11-22T03:57:19.327Z,12.63
2017-11-22T03:59:48.481Z,12.80
2017-11-22T04:02:17.442Z,12.73
2017-11-22T04:04:48.672Z,12.47
2017-11-22T04:07:16.885Z,12.27
2017-11-22T04:09:45.102Z,12.97
2017-11-22T04:12:13.411Z,12.87
2017-11-22T04:14:41.645Z,13.10
2017-11-22T04:17:09.849Z,13.07
2017-11-22T04:19:39.774Z,13.50
2017-11-22T04:22:07.984Z,11.17
2017-11-22T04:24:36.179Z,11.80
2017-11-22T04:27:05.189Z,12.33
2017-11-22T04:29:33.481Z,13.47
2017-11-22T04:32:01.707Z,11.17
2017-11-22T04:34:29.902Z,11.97
2017-11-22T04:36:58.906Z,11.40
2017-11-22T04:39:27.166Z,13.07
2017-11-22T04:41:56.141Z,10.80
2017-11-22T04:44:24.399Z,11.40
2017-11-22T04:46:52.632Z,11.00
2017-11-22T04:49:20.845Z,10.70
2017-11-22T04:51:49.105Z,11.67
2017-11-22T04:54:17.478Z,12.50
2017-11-22T04:56:45.770Z,13.53
2017-11-22T04:59:13.966Z,12.40
2017-11-22T05:01:42.206Z,13.63
2017-11-22T05:04:10.444Z,13.63
2017-11-22T05:06:39.430Z,11.97
2017-11-22T05:09:07.703Z,14.77
2017-11-22T05:11:35.935Z,22.47
2017-11-22T05:14:04.135Z,32.17
2017-11-22T05:16:32.501Z,42.27
2017-11-22T05:19:00.739Z,38.43
2017-11-22T05:21:28.978Z,38.60
2017-11-22T05:23:57.171Z,33.60
2017-11-22T05:26:26.279Z,27.90
2017-11-22T05:28:55.779Z,23.20
2017-11-22T05:31:24.858Z,18.30
2017-11-22T05:33:53.039Z,19.17
2017-11-22T05:36:22.148Z,21.50
2017-11-22T05:38:50.420Z,20.07
2017-11-22T05:41:19.413Z,21.93
2017-11-22T05:43:48.458Z,18.27
2017-11-22T05:46:16.696Z,18.53
2017-11-22T05:48:45.680Z,14.03
2017-11-22T05:51:14.671Z,12.90
2017-11-22T05:53:43.647Z,19.20
2017-11-22T05:56:12.115Z,16.50
2017-11-22T05:58:40.344Z,11.50
2017-11-22T06:01:08.737Z,18.20
2017-11-22T06:03:36.987Z,21.83
2017-11-22T06:06:05.167Z,23.37
2017-11-22T06:08:33.363Z,15.30
2017-11-22T06:11:01.555Z,15.80
2017-11-22T06:13:29.749Z,16.53
2017-11-22T06:15:57.939Z,13.27
2017-11-22T06:18:26.101Z,14.47
2017-11-22T06:20:54.295Z,14.07
2017-11-22T06:23:23.242Z,11.83
2017-11-22T06:25:51.416Z,12.77
2017-11-22T06:28:19.601Z,15.83
2017-11-22T06:30:47.786Z,16.30
2017-11-22T06:33:15.964Z,14.50
2017-11-22T06:35:44.168Z,11.10
2017-11-22T06:38:13.117Z,11.73
2017-11-22T06:40:42.470Z,10.87
2017-11-22T06:43:11.549Z,11.63
2017-11-22T06:45:40.550Z,10.90
2017-11-22T06:48:09.559Z,8.77
2017-11-22T06:50:37.768Z,10.00
2017-11-22T06:53:05.962Z,11.70
2017-11-22T06:55:34.158Z,11.27
2017-11-22T06:58:02.361Z,11.00
2017-11-22T07:00:30.567Z,12.23
2017-11-22T07:03:01.505Z,14.00
2017-11-22T07:05:29.705Z,11.60
2017-11-22T07:07:57.911Z,10.93
2017-11-22T07:10:26.904Z,12.50
2017-11-22T07:12:55.868Z,11.97
2017-11-22T07:15:24.085Z,13.83
2017-11-22T07:17:54.278Z,12.93
2017-11-22T07:20:22.487Z,13.03
2017-11-22T07:22:50.727Z,12.90
2017-11-22T07:25:18.965Z,12.20
2017-11-22T07:27:47.905Z,12.43
2017-11-22T07:30:16.904Z,13.40
2017-11-22T07:32:45.875Z,10.97
2017-11-22T07:35:14.056Z,12.20
2017-11-22T07:37:47.669Z,10.93
2017-11-22T07:40:16.624Z,11.43
2017-11-22T07:42:44.790Z,11.63
2017-11-22T07:45:13.007Z,12.70
2017-11-22T07:47:41.184Z,11.80
2017-11-22T07:50:09.383Z,13.10
2017-11-22T07:52:37.560Z,12.57
2017-11-22T07:55:05.772Z,11.73
2017-11-22T07:57:33.950Z,16.33
2017-11-22T08:00:02.120Z,17.97
2017-11-22T08:02:31.120Z,18.13
2017-11-22T08:04:59.289Z,13.40
2017-11-22T08:07:27.465Z,16.40
2017-11-22T08:09:55.636Z,10.80
2017-11-22T08:12:23.801Z,10.93
2017-11-22T08:14:51.988Z,11.27
2017-11-22T08:17:20.162Z,12.57
2017-11-22T08:19:48.337Z,12.60
2017-11-22T08:22:16.493Z,8.70
2017-11-22T08:24:44.742Z,9.30
2017-11-22T08:27:13.667Z,10.17
2017-11-22T08:29:41.946Z,19.40
2017-11-22T08:32:10.158Z,16.30
2017-11-22T08:34:38.327Z,16.67
2017-11-22T08:37:06.518Z,10.90
2017-11-22T08:39:34.706Z,11.27
2017-11-22T08:42:03.676Z,9.70
2017-11-22T08:44:31.856Z,10.80
2017-11-22T08:47:00.166Z,11.10
2017-11-22T08:49:28.336Z,9.97
2017-11-22T08:51:56.522Z,8.40
2017-11-22T08:54:30.310Z,8.47
2017-11-22T08:57:03.985Z,8.40
2017-11-22T08:59:33.003Z,9.43
2017-11-22T09:02:01.938Z,9.13
2017-11-22T09:04:30.113Z,9.57
2017-11-22T09:06:58.298Z,9.40
2017-11-22T09:09:26.472Z,7.93
2017-11-22T09:11:54.643Z,7.80
2017-11-22T09:14:22.824Z,9.30
2017-11-22T09:16:50.999Z,8.80
2017-11-22T09:19:19.175Z,9.50
2017-11-22T09:21:47.353Z,13.17
2017-11-22T09:27:18.867Z,10.83
2017-11-22T09:29:53.390Z,11.40
2017-11-22T09:32:27.796Z,12.27
2017-11-22T09:35:01.527Z,9.60
2017-11-22T09:37:31.599Z,15.77
2017-11-22T09:39:59.779Z,13.10
2017-11-22T09:42:29.746Z,16.20
2017-11-22T09:44:57.912Z,17.33
2017-11-22T09:47:26.097Z,14.43
2017-11-22T09:49:54.287Z,16.13
2017-11-22T09:52:22.490Z,14.33
2017-11-22T09:54:50.683Z,15.43
2017-11-22T09:57:18.862Z,14.60
2017-11-22T09:59:47.045Z,15.37
2017-11-22T10:02:16.028Z,15.20
2017-11-22T10:04:44.209Z,18.10
2017-11-22T10:07:13.198Z,19.53
2017-11-22T10:09:42.151Z,17.87
2017-11-22T10:12:10.327Z,20.33
2017-11-22T10:14:39.290Z,21.10
2017-11-22T10:17:12.248Z,20.57
2017-11-22T10:19:44.193Z,20.20
2017-11-22T10:22:12.400Z,20.50
2017-11-22T10:24:45.673Z,22.33
2017-11-22T10:27:19.338Z,23.00
2017-11-22T10:29:47.537Z,20.80
2017-11-22T10:32:21.324Z,22.13
2017-11-22T10:34:49.495Z,20.43
2017-11-22T10:37:17.674Z,20.80
2017-11-22T10:39:45.847Z,19.83
2017-11-22T10:42:14.044Z,21.53
2017-11-22T10:44:42.233Z,22.20
2017-11-22T10:47:10.408Z,23.40
2017-11-22T10:49:38.589Z,23.97
2017-11-22T10:52:07.540Z,23.47
2017-11-22T10:54:35.714Z,23.73
2017-11-22T10:57:03.890Z,25.83
2017-11-22T10:59:32.831Z,25.40
2017-11-22T11:02:01.778Z,23.80
2017-11-22T11:04:29.951Z,26.57
2017-11-22T11:06:58.127Z,26.93
2017-11-22T11:09:26.319Z,26.07
2017-11-22T11:11:54.503Z,28.60
2017-11-22T11:14:22.682Z,27.20
2017-11-22T11:16:50.860Z,26.43
2017-11-22T11:19:19.811Z,26.00
2017-11-22T11:21:47.993Z,26.47
2017-11-22T11:24:16.173Z,25.60
2017-11-22T11:26:44.365Z,26.00
2017-11-22T11:29:12.535Z,26.53
2017-11-22T11:31:40.712Z,26.67
2017-11-22T11:34:08.887Z,26.10
2017-11-22T11:36:37.077Z,27.00
2017-11-22T11:39:06.090Z,26.37
2017-11-22T11:41:34.267Z,27.37
2017-11-22T11:44:02.443Z,24.50
2017-11-22T11:46:30.618Z,23.93
2017-11-22T11:48:58.806Z,27.20
2017-11-22T11:51:26.990Z,26.57
2017-11-22T11:53:55.152Z,26.17
2017-11-22T11:56:23.356Z,24.77
2017-11-22T11:58:51.538Z,22.60
2017-11-22T12:01:19.713Z,20.40
2017-11-22T12:03:47.884Z,22.00
2017-11-22T12:06:16.051Z,21.20
2017-11-22T12:08:44.223Z,21.00
2017-11-22T12:11:12.401Z,20.13
2017-11-22T12:13:40.578Z,18.47
2017-11-22T12:16:08.752Z,18.13
2017-11-22T12:18:36.928Z,18.23
2017-11-22T12:21:05.118Z,19.90
2017-11-22T12:23:36.050Z,19.93
2017-11-22T12:26:04.223Z,20.10
2017-11-22T12:28:32.409Z,20.03
2017-11-22T12:31:00.587Z,20.97
2017-11-22T12:33:28.767Z,18.67
2017-11-22T12:35:56.949Z,20.30
2017-11-22T12:38:25.905Z,22.47
2017-11-22T12:40:54.099Z,19.83
2017-11-22T12:43:22.274Z,19.37
2017-11-22T12:45:50.467Z,18.20
2017-11-22T12:48:19.416Z,17.27
2017-11-22T12:50:47.596Z,17.47
2017-11-22T12:53:15.778Z,16.20
2017-11-22T12:55:43.955Z,14.13
2017-11-22T12:58:12.951Z,14.17
2017-11-22T13:00:41.134Z,14.67
2017-11-22T13:03:09.319Z,14.03
2017-11-22T13:05:37.496Z,15.93
2017-11-22T13:08:05.687Z,14.07
2017-11-22T13:13:26.281Z,14.47
2017-11-22T13:15:54.448Z,13.43
2017-11-22T13:18:22.635Z,13.60
2017-11-22T13:20:51.607Z,14.43
2017-11-22T13:23:19.789Z,13.70
2017-11-22T13:25:47.972Z,14.50
2017-11-22T13:28:16.164Z,13.50
2017-11-22T13:30:45.831Z,13.00
2017-11-22T13:33:14.159Z,12.80
2017-11-22T13:35:43.103Z,13.40
2017-11-22T13:38:11.392Z,12.97
2017-11-22T13:40:39.599Z,12.00
2017-11-22T13:43:08.557Z,12.07
2017-11-22T13:45:36.809Z,12.53
2017-11-22T13:48:05.000Z,12.70
2017-11-22T13:50:33.190Z,11.20
2017-11-22T13:53:01.383Z,12.20
2017-11-22T13:55:30.344Z,11.47
2017-11-22T13:57:58.520Z,15.00
2017-11-22T14:00:26.816Z,15.50
2017-11-22T14:02:55.001Z,36.20
2017-11-22T14:05:23.959Z,37.60
2017-11-22T14:07:52.912Z,17.57
2017-11-22T14:10:21.094Z,12.87
2017-11-22T14:12:49.295Z,13.07
2017-11-22T14:15:17.499Z,11.93
2017-11-22T14:17:45.681Z,11.50
2017-11-22T14:20:13.867Z,13.10
2017-11-22T14:22:42.812Z,14.37
2017-11-22T14:25:10.977Z,14.00
2017-11-22T14:27:39.160Z,13.80
2017-11-22T14:30:07.334Z,13.57
2017-11-22T14:32:35.546Z,14.37
2017-11-22T14:48:39.045Z,15.90
2017-11-22T14:51:08.010Z,22.13
2017-11-22T14:53:36.200Z,17.80
2017-11-22T14:56:04.376Z,36.60
2017-11-22T14:58:32.564Z,24.73
2017-11-22T15:01:01.545Z,16.20
2017-11-22T15:03:30.505Z,12.47
2017-11-22T15:05:58.679Z,14.17
2017-11-22T15:08:26.861Z,12.40
2017-11-22T15:10:55.036Z,12.57
2017-11-22T15:13:23.243Z,12.67
2017-11-22T15:15:51.427Z,11.57
2017-11-22T15:18:20.407Z,11.57
2017-11-22T15:20:48.627Z,10.70
2017-11-22T15:23:16.803Z,11.67
2017-11-22T15:25:44.972Z,11.03
2017-11-22T15:28:13.152Z,11.17
2017-11-22T15:30:41.331Z,11.40
2017-11-22T15:33:09.532Z,12.73
2017-11-22T15:35:37.776Z,12.07
2017-11-22T15:38:05.975Z,13.07
2017-11-22T15:40:34.144Z,13.40
2017-11-22T15:43:02.324Z,13.50
2017-11-22T15:45:30.504Z,12.43
2017-11-22T15:47:58.678Z,13.97
2017-11-22T15:50:26.855Z,14.60
2017-11-22T15:52:55.037Z,12.70
2017-11-22T15:55:23.216Z,14.03
2017-11-22T15:57:51.413Z,14.40
2017-11-22T16:00:20.362Z,14.63
2017-11-22T16:02:48.547Z,15.90
2017-11-22T16:05:16.733Z,16.07
2017-11-22T16:07:44.920Z,14.53
2017-11-22T16:10:13.091Z,17.90
2017-11-22T16:12:41.252Z,18.63
2017-11-22T16:15:09.427Z,17.30
2017-11-22T16:17:37.603Z,14.97
2017-11-22T16:20:05.774Z,13.13
2017-11-22T16:22:33.955Z,14.17
2017-11-22T16:25:02.147Z,13.67
2017-11-22T16:27:30.309Z,13.67
2017-11-22T16:29:58.471Z,14.70
2017-11-22T16:32:26.643Z,13.77
2017-11-22T16:34:54.811Z,14.80
2017-11-22T16:37:22.988Z,12.07
2017-11-22T16:39:51.200Z,14.40
2017-11-22T16:42:20.129Z,24.00
2017-11-22T16:44:48.304Z,27.10
2017-11-22T16:47:16.474Z,27.43
2017-11-22T16:49:44.662Z,38.13
2017-11-22T16:52:12.856Z,66.90
2017-11-22T16:54:41.094Z,40.40
2017-11-22T16:57:09.318Z,39.20
2017-11-22T16:59:37.516Z,33.43
2017-11-22T17:02:05.708Z,40.17
2017-11-22T17:04:34.649Z,54.37
2017-11-22T17:07:02.821Z,54.30
2017-11-22T17:09:31.018Z,25.37
2017-11-22T17:11:59.195Z,24.17
2017-11-22T17:14:27.377Z,33.67
2017-11-22T17:16:55.605Z,32.10
2017-11-22T17:19:23.823Z,25.10
2017-11-22T17:21:51.995Z,28.30
2017-11-22T17:24:20.221Z,23.00
2017-11-22T17:26:48.451Z,22.07
2017-11-22T17:29:16.668Z,17.93
2017-11-22T17:31:44.856Z,16.47
2017-11-22T17:34:13.131Z,16.17
2017-11-22T17:36:41.341Z,15.17
2017-11-22T17:39:09.588Z,25.30
2017-11-22T17:41:37.779Z,17.80
2017-11-22T17:44:06.726Z,21.27
2017-11-22T17:46:34.941Z,21.10
2017-11-22T17:49:03.190Z,17.57
2017-11-22T17:51:31.400Z,12.53
2017-11-22T17:53:59.575Z,14.10
2017-11-22T17:56:28.038Z,13.93
2017-11-22T17:58:56.270Z,41.67
2017-11-22T18:01:25.244Z,29.30
2017-11-22T18:03:53.414Z,66.47
2017-11-22T18:06:21.611Z,53.47
2017-11-22T18:08:50.548Z,29.80
2017-11-22T18:11:18.716Z,24.60
2017-11-22T18:13:46.914Z,15.87
2017-11-22T18:16:15.098Z,14.67
2017-11-22T18:18:43.314Z,15.93
2017-11-22T18:21:12.279Z,15.57
2017-11-22T18:23:40.493Z,16.00
2017-11-22T18:26:08.764Z,16.10
2017-11-22T18:28:36.966Z,15.70
2017-11-22T18:31:05.185Z,12.03
2017-11-22T18:33:33.394Z,19.70
2017-11-22T18:36:01.588Z,13.13
2017-11-22T18:38:29.869Z,11.40
2017-11-22T18:40:58.069Z,12.80
2017-11-22T18:43:26.272Z,15.80
2017-11-22T18:45:55.221Z,18.50
2017-11-22T18:48:23.397Z,12.40
2017-11-22T18:50:51.575Z,12.93
2017-11-22T18:53:19.758Z,13.00
2017-11-22T18:55:47.940Z,11.53
2017-11-22T18:58:16.168Z,9.50
2017-11-22T19:00:44.344Z,9.13
2017-11-22T19:03:12.569Z,9.77
2017-11-22T19:05:40.786Z,11.53
2017-11-22T19:08:09.029Z,10.17
2017-11-22T19:10:37.208Z,9.60
2017-11-22T19:13:05.405Z,9.90
2017-11-22T19:15:34.347Z,9.60
2017-11-22T19:18:03.348Z,9.50
2017-11-22T19:20:31.522Z,10.10
2017-11-22T19:22:59.720Z,8.37
2017-11-22T19:25:27.908Z,8.10
2017-11-22T19:27:56.859Z,9.33
2017-11-22T19:30:25.843Z,10.60
2017-11-22T19:32:54.033Z,23.20
2017-11-22T19:35:22.208Z,28.73
2017-11-22T19:37:50.410Z,27.20
2017-11-22T19:40:18.584Z,41.20
2017-11-22T19:42:46.791Z,36.57
2017-11-22T19:45:15.028Z,18.50
2017-11-22T19:47:43.204Z,16.67
2017-11-22T19:50:11.543Z,13.17
2017-11-22T19:52:39.797Z,10.53
2017-11-22T19:55:07.986Z,13.63
2017-11-22T19:57:36.164Z,14.10
2017-11-22T20:00:10.773Z,14.57
2017-11-22T20:02:39.807Z,17.57
2017-11-22T20:05:07.985Z,15.80
2017-11-22T20:08:04.511Z,11.93
2017-11-22T20:10:33.362Z,16.67
2017-11-22T20:13:01.531Z,13.47
2017-11-22T20:15:29.699Z,11.97
2017-11-22T20:17:57.872Z,12.53
2017-11-22T20:20:26.050Z,14.80
2017-11-22T20:22:57.021Z,12.60
2017-11-22T20:25:25.238Z,21.30
2017-11-22T20:27:54.184Z,19.27
2017-11-22T20:30:22.375Z,13.80
2017-11-22T20:32:50.550Z,13.00
2017-11-22T20:35:18.743Z,13.13
2017-11-22T20:37:55.246Z,17.33
2017-11-22T20:40:23.469Z,15.80
2017-11-22T20:42:52.421Z,16.20
2017-11-22T20:45:20.641Z,15.50
2017-11-22T20:47:48.809Z,12.13
2017-11-22T20:50:16.996Z,10.43
2017-11-22T20:52:45.189Z,10.23
2017-11-22T20:55:14.183Z,15.70
2017-11-22T20:57:43.171Z,14.73
2017-11-22T21:00:11.416Z,13.50
2017-11-22T21:02:39.595Z,16.43
2017-11-22T21:05:07.829Z,18.30
2017-11-22T21:07:35.995Z,13.23
2017-11-22T21:10:04.965Z,11.90
2017-11-22T21:12:33.144Z,13.80
2017-11-22T21:15:02.111Z,12.60
2017-11-22T21:17:30.290Z,11.73
2017-11-22T21:19:58.465Z,11.00
2017-11-22T21:22:26.638Z,9.93
2017-11-22T21:24:54.848Z,9.27
2017-11-22T21:27:23.806Z,9.57
2017-11-22T21:29:51.979Z,8.90
2017-11-22T21:32:20.149Z,8.50
2017-11-22T21:34:48.317Z,8.50
2017-11-22T21:37:17.281Z,8.93
2017-11-22T21:39:45.450Z,7.80
2017-11-22T21:42:13.615Z,7.77
2017-11-22T21:44:41.789Z,7.27
2017-11-22T21:47:10.715Z,8.90
2017-11-22T21:49:38.892Z,10.47
2017-11-22T21:52:07.060Z,9.60
2017-11-22T21:54:35.249Z,8.17
2017-11-22T21:57:04.193Z,10.60
2017-11-22T21:59:33.151Z,9.10
2017-11-22T22:02:01.332Z,7.87
2017-11-22T22:04:29.531Z,9.53
2017-11-22T22:06:58.479Z,9.80
2017-11-22T22:09:26.664Z,12.00
2017-11-22T22:11:54.823Z,13.73
2017-11-22T22:14:22.997Z,11.70
2017-11-22T22:16:51.179Z,11.60
2017-11-22T22:19:19.352Z,11.20
2017-11-22T22:21:47.510Z,9.70
2017-11-22T22:24:15.703Z,8.37
2017-11-22T22:26:43.879Z,12.40
2017-11-22T22:29:12.069Z,8.30
2017-11-22T22:31:40.229Z,9.77
2017-11-22T22:34:08.403Z,9.73
2017-11-22T22:36:36.659Z,9.63
2017-11-22T22:39:04.876Z,13.57
2017-11-22T22:41:33.050Z,8.90
2017-11-22T22:44:01.212Z,9.20
2017-11-22T22:46:29.401Z,8.87
2017-11-22T22:48:57.581Z,11.63
2017-11-22T22:51:26.548Z,10.20
2017-11-22T22:53:54.718Z,11.47
2017-11-22T22:56:22.916Z,12.20
2017-11-22T22:58:51.867Z,11.00
2017-11-22T23:01:20.042Z,9.20
2017-11-22T23:03:48.210Z,15.50
2017-11-22T23:06:16.371Z,13.53
2017-11-22T23:08:44.573Z,12.13
2017-11-22T23:11:12.792Z,17.07
2017-11-22T23:13:41.741Z,18.27
2017-11-22T23:16:09.953Z,24.63
2017-11-22T23:18:38.141Z,24.90
2017-11-22T23:21:07.083Z,27.60
2017-11-22T23:23:35.250Z,27.50
2017-11-22T23:26:03.418Z,29.90
2017-11-22T23:28:31.582Z,25.70
2017-11-22T23:30:59.791Z,15.23
2017-11-22T23:33:27.943Z,12.63
2017-11-22T23:35:56.125Z,11.73
2017-11-22T23:38:24.282Z,11.63
2017-11-22T23:40:52.419Z,11.70
2017-11-22T23:43:20.586Z,12.40
2017-11-22T23:45:48.763Z,12.37
2017-11-22T23:48:16.949Z,11.17
2017-11-22T23:50:45.950Z,10.83
2017-11-22T23:53:14.143Z,11.00
2017-11-22T23:55:42.346Z,10.97
2017-11-22T23:58:10.686Z,10.73
